Time;durP1;ratioP1;P1;durP2;ratioP2;P2;SDS_P1;SDS_P2;PMS_P1;PMS_P2;Temp;Humidity;BMP_temperature;BMP_pressure;BME280_temperature;BME280_humidity;BME280_pressure;Samples;Min_cycle;Max_cycle;Signal;HPM_P1;HPM_P2
2024/03/20 00:01:27;;;;;;;13.15;4.45;;;11.00;72.40;;;;;;6284326;22;35887;-79
2024/03/20 00:03:54;;;;;;;15.77;4.38;;;10.90;75.90;;;;;;6283602;22;40718;-78
2024/03/20 00:06:20;;;;;;;9.98;4.18;;;10.80;90.60;;;;;;6309073;22;38552;-78
2024/03/20 00:08:46;;;;;;;13.75;3.95;;;10.70;94.40;;;;;;6308703;22;38928;-78
2024/03/20 00:11:12;;;;;;;14.82;4.88;;;10.70;95.70;;;;;;6280743;22;36367;-79
2024/03/20 00:13:38;;;;;;;15.50;4.60;;;10.70;98.20;;;;;;6284633;22;39107;-78
2024/03/20 00:16:05;;;;;;;12.07;4.55;;;10.70;99.20;;;;;;6318385;22;38647;-78
2024/03/20 00:18:31;;;;;;;11.95;4.32;;;10.70;99.70;;;;;;6290788;22;37571;-78
2024/03/20 00:20:57;;;;;;;20.83;5.72;;;10.70;99.90;;;;;;6275053;22;37420;-78
2024/03/20 00:23:23;;;;;;;11.57;4.35;;;10.70;99.90;;;;;;6280387;22;38687;-79
2024/03/20 00:25:50;;;;;;;12.02;4.55;;;10.60;99.90;;;;;;6279551;22;38516;-79
2024/03/20 00:28:16;;;;;;;10.98;5.40;;;10.60;99.90;;;;;;6307939;22;37941;-79
2024/03/20 00:30:42;;;;;;;14.07;5.38;;;10.60;99.90;;;;;;6313300;22;37300;-79
2024/03/20 00:33:08;;;;;;;14.55;5.43;;;10.60;99.90;;;;;;6283579;22;37482;-79
2024/03/20 00:35:37;;;;;;;14.90;5.60;;;10.50;99.90;;;;;;6312550;22;39096;-79
2024/03/20 00:54:55;;;;;;;18.37;5.87;;;10.30;99.90;;;;;;6312981;22;49380;-79
2024/03/20 00:57:22;;;;;;;14.53;5.93;;;10.30;99.90;;;;;;6288165;22;37453;-78
2024/03/20 00:59:48;;;;;;;15.97;6.47;;;10.30;99.90;;;;;;6289770;22;39484;-78
2024/03/20 01:02:14;;;;;;;10.53;5.77;;;10.20;99.90;;;;;;6284286;22;37129;-79
2024/03/20 01:04:40;;;;;;;12.67;5.90;;;10.20;99.90;;;;;;6289243;22;36022;-77
2024/03/20 01:07:07;;;;;;;14.67;6.20;;;10.20;99.90;;;;;;6290226;22;39450;-78
2024/03/20 01:09:33;;;;;;;14.23;5.83;;;10.10;99.90;;;;;;6288735;22;38976;-78
2024/03/20 01:11:59;;;;;;;15.47;6.43;;;10.10;99.90;;;;;;6289987;22;39972;-78
2024/03/20 01:14:26;;;;;;;15.33;6.23;;;10.10;99.90;;;;;;6288740;22;38058;-78
2024/03/20 01:16:53;;;;;;;11.73;5.63;;;10.10;99.90;;;;;;6318060;22;40615;-78
2024/03/20 01:19:19;;;;;;;16.53;6.43;;;10.10;99.90;;;;;;6289144;22;37868;-78
2024/03/20 01:21:46;;;;;;;13.13;6.70;;;10.00;99.90;;;;;;6317293;22;38699;-78
2024/03/20 01:24:12;;;;;;;16.23;6.00;;;10.00;99.90;;;;;;6288558;22;37642;-79
2024/03/20 01:26:38;;;;;;;13.90;6.20;;;9.90;99.90;;;;;;6290497;22;37730;-78
2024/03/20 01:29:04;;;;;;;15.87;6.37;;;9.90;99.90;;;;;;6287295;22;38653;-78
2024/03/20 01:31:31;;;;;;;16.57;6.20;;;9.80;99.90;;;;;;6288722;22;38553;-78
2024/03/20 01:33:57;;;;;;;11.17;5.80;;;9.80;99.90;;;;;;6289841;22;35760;-78
2024/03/20 01:36:23;;;;;;;16.37;6.37;;;9.80;99.90;;;;;;6288016;22;37420;-78
2024/03/20 01:38:49;;;;;;;18.53;6.50;;;9.80;99.90;;;;;;6287544;22;37899;-78
2024/03/20 01:41:16;;;;;;;18.97;6.70;;;9.80;99.90;;;;;;6287235;22;38966;-78
2024/03/20 01:43:51;;;;;;;16.17;6.57;;;9.80;99.90;;;;;;6289255;22;38115;-78
2024/03/20 01:46:28;;;;;;;12.27;6.47;;;9.80;99.90;;;;;;6314810;22;39803;-78
2024/03/20 01:48:56;;;;;;;23.13;7.73;;;9.80;99.90;;;;;;6286202;22;38856;-78
2024/03/20 01:51:22;;;;;;;17.50;7.73;;;9.80;99.90;;;;;;6286348;22;37149;-78
2024/03/20 01:53:49;;;;;;;15.95;7.75;;;9.80;99.90;;;;;;6286164;22;37165;-78
2024/03/20 01:56:15;;;;;;;16.97;7.33;;;9.80;99.90;;;;;;6282685;22;40789;-78
2024/03/20 01:58:41;;;;;;;22.83;7.70;;;9.80;99.90;;;;;;6311825;22;38868;-78
2024/03/20 02:04:33;;;;;;;15.13;8.40;;;9.80;99.90;;;;;;6288810;22;20019;-79
2024/03/20 02:07:14;;;;;;;17.20;7.90;;;9.80;99.90;;;;;;6283613;22;47192;-78
2024/03/20 02:09:40;;;;;;;18.43;7.30;;;9.70;99.90;;;;;;6312033;22;49036;-78
2024/03/20 02:12:06;;;;;;;18.13;7.57;;;9.70;99.90;;;;;;6284296;22;39303;-78
2024/03/20 02:14:37;;;;;;;20.33;8.50;;;9.70;99.90;;;;;;6286603;22;36344;-79
2024/03/20 02:17:03;;;;;;;15.73;8.70;;;9.70;99.90;;;;;;6310052;22;40482;-79
2024/03/20 02:19:30;;;;;;;25.33;8.53;;;9.60;99.90;;;;;;6309902;22;39664;-79
2024/03/20 02:21:56;;;;;;;14.47;8.33;;;9.60;99.90;;;;;;6308787;22;38538;-79
2024/03/20 02:24:22;;;;;;;22.07;8.77;;;9.60;99.90;;;;;;6309276;22;36847;-79
2024/03/20 02:26:49;;;;;;;18.40;9.73;;;9.60;99.90;;;;;;6283914;22;37965;-79
2024/03/20 02:29:17;;;;;;;16.83;8.27;;;9.60;99.90;;;;;;6282527;22;37914;-78
2024/03/20 02:31:43;;;;;;;14.83;8.83;;;9.60;99.90;;;;;;6312465;22;38924;-79
2024/03/20 02:34:10;;;;;;;18.67;9.10;;;9.60;99.90;;;;;;6284733;22;37510;-79
2024/03/20 02:36:37;;;;;;;21.40;10.00;;;9.60;99.90;;;;;;6285647;22;38967;-79
2024/03/20 02:39:03;;;;;;;16.73;8.53;;;9.50;99.90;;;;;;6284168;22;37481;-79
2024/03/20 02:41:29;;;;;;;15.23;8.93;;;9.50;99.90;;;;;;6311823;22;38424;-79
2024/03/20 02:43:55;;;;;;;19.47;9.70;;;9.50;99.90;;;;;;6313792;22;37018;-79
2024/03/20 02:46:21;;;;;;;16.17;10.53;;;9.40;99.90;;;;;;6286238;22;37815;-79
2024/03/20 02:48:47;;;;;;;25.67;10.23;;;9.40;99.90;;;;;;6312955;22;38690;-79
2024/03/20 02:51:15;;;;;;;21.37;10.27;;;9.40;99.90;;;;;;6284025;22;40246;-79
2024/03/20 02:53:41;;;;;;;16.70;10.17;;;9.30;99.90;;;;;;6312861;22;37565;-79
2024/03/20 02:56:07;;;;;;;19.13;10.00;;;9.30;99.90;;;;;;6284056;22;37598;-79
2024/03/20 02:58:33;;;;;;;16.43;10.00;;;9.30;99.90;;;;;;6283018;22;37348;-79
2024/03/20 03:00:59;;;;;;;17.13;10.20;;;9.30;99.90;;;;;;6282760;22;37333;-78
2024/03/20 03:03:25;;;;;;;20.60;10.97;;;9.20;99.90;;;;;;6278227;22;38926;-79
2024/03/20 03:05:51;;;;;;;25.17;11.13;;;9.30;99.90;;;;;;6309714;22;38762;-79
2024/03/20 03:08:17;;;;;;;25.10;10.13;;;9.20;99.90;;;;;;6281509;22;40255;-79
2024/03/20 03:10:43;;;;;;;22.33;11.37;;;9.30;99.90;;;;;;6308668;22;38839;-79
2024/03/20 03:13:10;;;;;;;22.77;10.53;;;9.20;99.90;;;;;;6307840;22;38627;-78
2024/03/20 03:15:36;;;;;;;15.33;8.53;;;9.20;99.90;;;;;;6280242;22;37543;-78
2024/03/20 03:18:02;;;;;;;19.03;8.83;;;9.10;99.90;;;;;;6306407;22;39785;-79
2024/03/20 03:20:28;;;;;;;16.60;9.67;;;9.10;99.90;;;;;;6309756;22;39447;-78
2024/03/20 03:22:55;;;;;;;22.10;8.90;;;9.10;99.90;;;;;;6309340;22;37010;-78
2024/03/20 03:25:21;;;;;;;20.27;9.83;;;9.10;99.90;;;;;;6280333;22;39037;-79
2024/03/20 03:27:48;;;;;;;20.07;10.77;;;9.10;99.90;;;;;;6281961;22;39531;-78
2024/03/20 03:30:15;;;;;;;17.57;10.47;;;9.10;99.90;;;;;;6280935;22;40181;-78
2024/03/20 03:32:41;;;;;;;23.40;10.50;;;9.10;99.90;;;;;;6280680;22;38068;-78
2024/03/20 03:35:08;;;;;;;17.93;11.10;;;9.10;99.90;;;;;;6281679;22;40303;-78
2024/03/20 03:37:35;;;;;;;22.03;11.90;;;9.10;99.90;;;;;;6307523;22;39019;-78
2024/03/20 03:40:05;;;;;;;22.23;11.47;;;9.10;99.90;;;;;;6278600;22;39263;-78
2024/03/20 03:42:32;;;;;;;18.47;10.80;;;9.10;99.90;;;;;;6278427;22;47161;-79
2024/03/20 03:44:59;;;;;;;27.97;12.37;;;9.10;99.90;;;;;;6278517;22;39626;-79
2024/03/20 03:47:33;;;;;;;22.30;11.80;;;9.10;99.90;;;;;;6276861;22;39604;-78
2024/03/20 03:49:59;;;;;;;25.37;12.10;;;9.10;99.90;;;;;;6279732;22;39298;-78
2024/03/20 03:52:25;;;;;;;21.23;11.80;;;9.10;99.90;;;;;;6307377;22;37451;-78
2024/03/20 03:54:51;;;;;;;24.70;12.47;;;9.00;99.90;;;;;;6309845;22;38774;-79
2024/03/20 03:57:17;;;;;;;26.03;12.93;;;9.00;99.90;;;;;;6306792;22;39030;-78
2024/03/20 03:59:44;;;;;;;24.33;12.37;;;9.00;99.90;;;;;;6280032;22;38089;-78
2024/03/20 04:02:11;;;;;;;22.03;12.70;;;9.00;99.90;;;;;;6307084;22;36901;-78
2024/03/20 04:04:37;;;;;;;26.73;11.73;;;9.00;99.90;;;;;;6306659;22;39384;-79
2024/03/20 04:07:04;;;;;;;21.87;11.63;;;9.00;99.90;;;;;;6251067;22;1313779;-78
2024/03/20 04:09:31;;;;;;;21.10;11.77;;;9.00;99.90;;;;;;6279005;22;40169;-78
2024/03/20 04:11:58;;;;;;;24.17;12.00;;;8.90;99.90;;;;;;6280169;22;38601;-78
2024/03/20 04:14:24;;;;;;;22.90;12.70;;;8.90;99.90;;;;;;6282304;22;40590;-78
2024/03/20 04:16:50;;;;;;;25.33;13.47;;;8.90;99.90;;;;;;6282634;22;38788;-78
2024/03/20 04:19:17;;;;;;;26.50;13.20;;;8.80;99.90;;;;;;6281733;22;39990;-78
2024/03/20 04:21:43;;;;;;;22.53;13.97;;;8.80;99.90;;;;;;6281602;22;36434;-78
2024/03/20 04:24:09;;;;;;;27.27;14.50;;;8.80;99.90;;;;;;6280940;22;37630;-78
2024/03/20 04:26:35;;;;;;;27.10;14.80;;;8.80;99.90;;;;;;6311010;22;39117;-78
2024/03/20 04:29:01;;;;;;;24.43;13.43;;;8.80;99.90;;;;;;6296589;22;38610;-77
2024/03/20 04:31:27;;;;;;;21.97;12.30;;;8.80;99.90;;;;;;6294434;22;36287;-77
2024/03/20 04:33:53;;;;;;;20.57;12.17;;;8.70;99.90;;;;;;6285835;22;37657;-77
2024/03/20 04:36:19;;;;;;;26.87;12.57;;;8.60;99.90;;;;;;6287318;22;39082;-77
2024/03/20 04:38:45;;;;;;;24.03;12.50;;;8.60;99.90;;;;;;6287983;22;39096;-77
2024/03/20 04:41:12;;;;;;;21.90;11.60;;;8.50;99.90;;;;;;6310494;22;37680;-77
2024/03/20 04:43:39;;;;;;;26.90;12.47;;;8.60;99.90;;;;;;6308208;22;40074;-77
2024/03/20 04:46:05;;;;;;;25.50;12.40;;;8.50;99.90;;;;;;6280018;22;39411;-77
2024/03/20 04:48:31;;;;;;;23.37;13.10;;;8.50;99.90;;;;;;6307694;22;38213;-77
2024/03/20 04:50:57;;;;;;;24.60;11.90;;;8.50;99.90;;;;;;6281408;22;39218;-78
2024/03/20 04:53:23;;;;;;;28.20;14.03;;;8.50;99.90;;;;;;6280853;22;40902;-78
2024/03/20 04:55:50;;;;;;;23.87;13.27;;;8.50;99.90;;;;;;6280942;22;40514;-78
2024/03/20 04:58:16;;;;;;;21.20;13.30;;;8.50;99.90;;;;;;6281019;22;39398;-78
2024/03/20 05:00:42;;;;;;;23.83;13.13;;;8.50;99.90;;;;;;6310752;22;37997;-78
2024/03/20 05:03:08;;;;;;;28.80;13.00;;;8.50;99.90;;;;;;6281502;22;39878;-78
2024/03/20 05:05:34;;;;;;;23.30;13.67;;;8.50;99.90;;;;;;6282885;22;38884;-78
2024/03/20 05:08:00;;;;;;;26.93;14.07;;;8.50;99.90;;;;;;6281082;22;38527;-78
2024/03/20 05:10:26;;;;;;;27.00;14.27;;;8.40;99.90;;;;;;6307888;22;37355;-78
2024/03/20 05:12:52;;;;;;;25.97;14.20;;;8.40;99.90;;;;;;6309466;22;39150;-78
2024/03/20 05:15:18;;;;;;;25.57;14.03;;;8.40;99.90;;;;;;6280598;22;37671;-78
2024/03/20 05:17:45;;;;;;;26.30;14.20;;;8.40;99.90;;;;;;6280335;22;40224;-78
2024/03/20 05:20:11;;;;;;;29.77;14.23;;;8.40;99.90;;;;;;6280562;22;36345;-78
2024/03/20 05:22:38;;;;;;;24.77;14.37;;;8.30;99.90;;;;;;6281926;22;38102;-78
2024/03/20 05:25:05;;;;;;;25.50;13.60;;;8.30;99.90;;;;;;6280375;22;40568;-78
2024/03/20 05:27:32;;;;;;;30.27;14.80;;;8.30;99.90;;;;;;6307433;22;48507;-78
2024/03/20 05:29:58;;;;;;;31.83;15.27;;;8.30;99.90;;;;;;6306603;22;38803;-78
2024/03/20 05:32:24;;;;;;;27.20;15.63;;;8.30;99.90;;;;;;6307128;22;38690;-78
2024/03/20 05:34:50;;;;;;;30.07;15.07;;;8.30;99.90;;;;;;6280976;22;38049;-79
2024/03/20 05:37:18;;;;;;;35.33;17.83;;;8.30;99.90;;;;;;6279945;22;40383;-78
2024/03/20 05:39:44;;;;;;;33.60;15.20;;;8.30;99.90;;;;;;6279918;22;36814;-78
2024/03/20 05:42:10;;;;;;;22.90;13.77;;;8.30;99.90;;;;;;6306962;22;39728;-78
2024/03/20 05:44:36;;;;;;;29.33;14.63;;;8.30;99.90;;;;;;6280703;22;38025;-79
2024/03/20 05:47:02;;;;;;;32.73;16.07;;;8.30;99.90;;;;;;6280639;22;39657;-78
2024/03/20 05:49:28;;;;;;;32.27;16.30;;;8.20;99.90;;;;;;6279276;22;38610;-78
2024/03/20 05:51:54;;;;;;;29.20;16.13;;;8.20;99.90;;;;;;6310192;22;39483;-78
2024/03/20 05:54:20;;;;;;;30.10;14.93;;;8.30;99.90;;;;;;6277562;22;39810;-76
2024/03/20 05:56:47;;;;;;;27.93;16.17;;;8.20;99.90;;;;;;6285224;22;38962;-76
2024/03/20 05:59:13;;;;;;;25.47;14.30;;;8.20;99.90;;;;;;6278089;22;38254;-77
2024/03/20 06:01:39;;;;;;;27.07;14.50;;;8.20;99.90;;;;;;6305620;22;38511;-76
2024/03/20 06:04:05;;;;;;;27.57;15.27;;;8.20;99.90;;;;;;6274812;22;39572;-78
2024/03/20 06:06:31;;;;;;;27.53;16.33;;;8.30;99.90;;;;;;6274935;22;40102;-76
2024/03/20 06:08:57;;;;;;;30.60;16.57;;;8.20;99.90;;;;;;6275049;22;38328;-77
2024/03/20 06:11:24;;;;;;;26.17;14.77;;;8.20;99.90;;;;;;6277159;22;39619;-76
2024/03/20 06:13:50;;;;;;;28.03;16.13;;;8.30;99.90;;;;;;6278345;22;37624;-78
2024/03/20 06:16:16;;;;;;;30.93;17.27;;;8.30;99.90;;;;;;6277929;22;39510;-77
2024/03/20 06:18:42;;;;;;;27.47;15.03;;;8.40;99.90;;;;;;6277859;22;37681;-77
2024/03/20 06:21:10;;;;;;;32.97;16.00;;;8.40;99.90;;;;;;6300198;22;38867;-78
2024/03/20 06:23:36;;;;;;;27.17;15.30;;;8.50;99.90;;;;;;6305114;22;37851;-77
2024/03/20 06:26:04;;;;;;;29.13;16.23;;;8.50;99.90;;;;;;6278367;22;39078;-78
2024/03/20 06:28:30;;;;;;;30.03;17.10;;;8.50;99.90;;;;;;6279540;22;38768;-77
2024/03/20 06:30:57;;;;;;;31.43;17.37;;;8.60;99.90;;;;;;6276631;22;38485;-78
2024/03/20 06:33:24;;;;;;;31.27;17.47;;;8.60;99.90;;;;;;6304348;22;38880;-78
2024/03/20 06:35:51;;;;;;;29.80;18.03;;;8.70;99.90;;;;;;6305373;22;38698;-78
2024/03/20 06:38:18;;;;;;;29.27;17.73;;;8.70;99.90;;;;;;6276208;22;36327;-78
2024/03/20 06:40:44;;;;;;;34.67;18.73;;;8.80;99.90;;;;;;6305663;22;38375;-78
2024/03/20 06:43:11;;;;;;;28.30;17.43;;;8.80;99.90;;;;;;6304559;22;39208;-78
2024/03/20 06:45:47;;;;;;;28.13;17.23;;;8.90;99.90;;;;;;6273967;22;37454;-77
2024/03/20 06:48:15;;;;;;;32.30;18.70;;;8.90;99.90;;;;;;6260950;22;36920;-79
2024/03/20 06:50:48;;;;;;;31.77;19.07;;;9.00;99.90;;;;;;6261108;22;41023;-77
2024/03/20 06:53:15;;;;;;;32.20;19.83;;;9.10;99.90;;;;;;6263235;22;39459;-78
2024/03/20 06:55:43;;;;;;;31.30;18.90;;;9.20;99.90;;;;;;6263217;22;37733;-78
2024/03/20 06:58:13;;;;;;;25.30;17.80;;;9.20;99.90;;;;;;6292560;22;37635;-78
2024/03/20 07:00:46;;;;;;;30.20;18.10;;;9.30;99.90;;;;;;6261364;22;40002;-79
2024/03/20 07:03:16;;;;;;;33.93;18.57;;;9.40;99.90;;;;;;6263311;22;40014;-79
2024/03/20 07:05:42;;;;;;;27.40;18.10;;;9.50;99.90;;;;;;6263854;22;37524;-78
2024/03/20 07:08:09;;;;;;;33.90;19.23;;;9.60;99.90;;;;;;6261901;22;38400;-77
2024/03/20 07:10:37;;;;;;;38.03;18.50;;;9.70;99.90;;;;;;6269045;22;38622;-79
2024/03/20 07:13:04;;;;;;;37.57;19.27;;;9.80;99.90;;;;;;6295623;22;39094;-77
2024/03/20 07:15:32;;;;;;;27.40;17.77;;;9.80;99.90;;;;;;6272390;22;38756;-78
2024/03/20 07:17:59;;;;;;;29.50;17.73;;;9.90;99.90;;;;;;6273889;22;39105;-78
2024/03/20 07:20:26;;;;;;;28.40;17.40;;;10.00;99.90;;;;;;6271201;22;38106;-78
2024/03/20 07:22:52;;;;;;;28.05;16.45;;;10.10;99.90;;;;;;6304247;22;39145;-78
2024/03/20 07:25:19;;;;;;;29.58;17.60;;;10.10;99.90;;;;;;6272780;22;39465;-79
2024/03/20 07:27:46;;;;;;;22.67;15.55;;;10.30;99.90;;;;;;6272585;22;39641;-79
2024/03/20 07:30:12;;;;;;;24.00;16.57;;;10.50;99.90;;;;;;6272472;22;37650;-80
2024/03/20 07:32:38;;;;;;;29.35;13.90;;;10.50;99.90;;;;;;6298792;22;39917;-79
2024/03/20 07:35:06;;;;;;;26.55;13.68;;;10.50;99.90;;;;;;6297192;22;38479;-79
2024/03/20 07:37:32;;;;;;;29.45;14.02;;;10.60;99.90;;;;;;6270936;22;36549;-79
2024/03/20 07:39:59;;;;;;;25.20;12.65;;;10.60;99.90;;;;;;6271372;22;39292;-79
2024/03/20 07:42:25;;;;;;;17.52;11.25;;;10.60;99.90;;;;;;6269630;22;37682;-80
2024/03/20 07:44:52;;;;;;;22.00;11.88;;;10.70;99.90;;;;;;6299846;22;39129;-80
2024/03/20 07:47:19;;;;;;;20.38;12.15;;;10.80;99.90;;;;;;6302968;22;38301;-80
2024/03/20 07:49:45;;;;;;;20.02;12.15;;;10.80;99.90;;;;;;6274636;22;40995;-79
2024/03/20 07:52:12;;;;;;;23.45;12.27;;;11.00;99.90;;;;;;6269703;22;39586;-79
2024/03/20 07:54:38;;;;;;;25.92;11.90;;;11.00;99.90;;;;;;6282406;22;38640;-79
2024/03/20 07:57:04;;;;;;;19.63;11.07;;;11.10;99.90;;;;;;6265726;22;38204;-79
2024/03/20 07:59:31;;;;;;;19.27;10.35;;;11.20;99.90;;;;;;6266248;22;40177;-80
2024/03/20 08:01:57;;;;;;;19.77;9.68;;;11.30;99.90;;;;;;6267332;22;39428;-79
2024/03/20 08:04:24;;;;;;;18.55;8.90;;;11.30;99.90;;;;;;6270754;22;37572;-80
2024/03/20 08:06:52;;;;;;;18.75;8.90;;;11.40;99.90;;;;;;6268868;22;36291;-79
2024/03/20 08:09:21;;;;;;;15.10;9.32;;;11.60;99.90;;;;;;6271542;22;41241;-80
2024/03/20 08:11:47;;;;;;;16.52;8.20;;;11.70;99.90;;;;;;6271791;22;39076;-80
2024/03/20 08:14:13;;;;;;;24.98;9.07;;;11.80;95.40;;;;;;6270805;22;40146;-80
2024/03/20 08:16:40;;;;;;;17.42;8.05;;;11.80;74.80;;;;;;6298193;22;37983;-79
2024/03/20 08:19:07;;;;;;;20.83;8.05;;;11.90;67.40;;;;;;6296139;22;38748;-79
2024/03/20 08:21:33;;;;;;;18.73;7.63;;;12.10;72.00;;;;;;6296684;22;39177;-82
2024/03/20 08:24:00;;;;;;;18.52;7.60;;;12.10;56.70;;;;;;6296939;22;39307;-80
2024/03/20 08:26:28;;;;;;;19.90;8.18;;;12.20;44.40;;;;;;6299783;22;37089;-80
2024/03/20 08:28:54;;;;;;;15.57;7.72;;;12.30;42.90;;;;;;6274293;22;40155;-80
2024/03/20 08:31:20;;;;;;;14.52;6.85;;;12.50;38.30;;;;;;6271162;22;39290;-81
2024/03/20 08:33:46;;;;;;;17.20;6.68;;;12.50;22.70;;;;;;6298165;22;38304;-81
2024/03/20 08:36:12;;;;;;;18.15;6.78;;;12.60;16.00;;;;;;6272447;22;35884;-80
2024/03/20 08:38:38;;;;;;;17.95;8.07;;;12.70;11.10;;;;;;6270886;22;39689;-80
2024/03/20 08:41:05;;;;;;;11.60;6.40;;;12.80;1.00;;;;;;6271373;22;37641;-80
2024/03/20 08:43:32;;;;;;;15.88;7.00;;;12.90;2.20;;;;;;6275707;22;40572;-79
2024/03/20 08:45:59;;;;;;;13.90;7.68;;;13.10;3.80;;;;;;6273952;22;36191;-80
2024/03/20 08:48:26;;;;;;;10.55;6.72;;;13.30;1.00;;;;;;6300600;22;39275;-80
2024/03/20 08:50:52;;;;;;;15.65;7.20;;;13.50;1.00;;;;;;6273203;22;39701;-80
2024/03/20 08:53:19;;;;;;;14.93;6.72;;;13.60;1.00;;;;;;6274883;22;39263;-80
2024/03/20 08:55:45;;;;;;;15.45;6.72;;;13.60;1.00;;;;;;6301521;22;38169;-81
2024/03/20 08:58:12;;;;;;;21.70;6.65;;;13.80;1.00;;;;;;6274648;22;40165;-80
2024/03/20 09:00:38;;;;;;;19.45;8.88;;;13.90;1.00;;;;;;6277370;22;37920;-80
2024/03/20 09:03:04;;;;;;;18.05;8.48;;;14.00;1.00;;;;;;6321764;22;38989;-80
2024/03/20 09:05:31;;;;;;;17.30;8.88;;;13.90;1.00;;;;;;6320605;22;37431;-81
2024/03/20 09:07:57;;;;;;;17.00;8.32;;;14.00;1.00;;;;;;6314480;22;39103;-80
2024/03/20 09:10:24;;;;;;;21.17;8.63;;;14.10;1.00;;;;;;6287095;22;39825;-80
2024/03/20 09:12:51;;;;;;;20.88;10.68;;;14.30;1.00;;;;;;6279828;22;38385;-80
2024/03/20 09:15:17;;;;;;;20.13;10.20;;;14.20;1.00;;;;;;6302711;22;36940;-81
2024/03/20 09:17:44;;;;;;;21.67;12.98;;;14.10;1.00;;;;;;6276440;22;37658;-80
2024/03/20 09:20:19;;;;;;;27.40;12.57;;;14.20;1.00;;;;;;6278221;22;39803;-80
2024/03/20 09:22:46;;;;;;;20.05;10.98;;;14.20;1.00;;;;;;6308213;22;39670;-81
2024/03/20 09:25:14;;;;;;;20.65;11.00;;;14.20;1.00;;;;;;6281551;22;36149;-80
2024/03/20 09:27:43;;;;;;;21.52;10.98;;;14.20;1.00;;;;;;6310286;22;38908;-80
2024/03/20 09:30:13;;;;;;;21.23;10.57;;;14.20;1.00;;;;;;6305262;22;38362;-80
2024/03/20 09:32:39;;;;;;;18.63;10.13;;;14.20;1.00;;;;;;6307363;22;38755;-80
2024/03/20 09:35:06;;;;;;;20.52;9.80;;;14.50;1.00;;;;;;6302008;22;37349;-80
2024/03/20 09:37:32;;;;;;;18.58;10.82;;;14.70;1.00;;;;;;6271554;22;39726;-78
2024/03/20 09:39:59;;;;;;;23.20;12.00;;;14.90;1.00;;;;;;6265896;22;38620;-77
2024/03/20 09:42:26;;;;;;;24.17;11.45;;;15.00;1.00;;;;;;6259998;22;37954;-79
2024/03/20 09:44:52;;;;;;;25.65;11.52;;;15.20;1.00;;;;;;6262921;22;37614;-79
2024/03/20 09:47:20;;;;;;;25.88;12.73;;;15.20;1.00;;;;;;6292150;22;39320;-77
2024/03/20 09:49:47;;;;;;;22.63;12.00;;;15.10;1.00;;;;;;6279848;22;39737;-81
2024/03/20 09:52:13;;;;;;;18.73;11.00;;;15.20;1.00;;;;;;6263356;22;37951;-80
2024/03/20 09:54:43;;;;;;;23.63;11.65;;;15.40;1.00;;;;;;6264167;22;38378;-80
2024/03/20 09:57:14;;;;;;;20.33;10.95;;;15.60;1.00;;;;;;6262246;22;40274;-80
2024/03/20 09:59:47;;;;;;;22.73;11.30;;;15.80;1.00;;;;;;6276524;22;39913;-79
2024/03/20 10:02:13;;;;;;;;;;;16.00;1.00;;;;;;6281889;22;37214;-80
2024/03/20 10:04:39;;;;;;;22.50;12.57;;;16.00;1.00;;;;;;6274116;22;36879;-81
2024/03/20 10:07:13;;;;;;;22.83;12.20;;;16.20;1.00;;;;;;6279775;22;37679;-82
2024/03/20 10:09:41;;;;;;;21.52;12.10;;;16.30;1.00;;;;;;6280690;22;39877;-81
2024/03/20 10:12:12;;;;;;;18.10;10.85;;;16.40;1.00;;;;;;6263860;22;37406;-80
2024/03/20 10:14:38;;;;;;;21.03;12.20;;;16.50;1.00;;;;;;6262843;22;38837;-80
2024/03/20 10:17:11;;;;;;;24.55;13.68;;;16.90;1.00;;;;;;6258943;22;37859;-82
2024/03/20 10:19:38;;;;;;;20.83;13.18;;;17.00;1.00;;;;;;6289799;22;39573;-80
2024/03/20 10:22:07;;;;;;;26.35;15.18;;;16.60;1.00;;;;;;6286757;22;39300;-81
2024/03/20 10:24:34;;;;;;;24.20;14.50;;;16.70;1.00;;;;;;6262147;22;38835;-81
2024/03/20 10:27:03;;;;;;;22.60;14.00;;;16.60;1.00;;;;;;6288449;22;39874;-81
2024/03/20 10:29:31;;;;;;;21.33;14.38;;;16.80;1.00;;;;;;6258335;22;47415;-82
2024/03/20 10:31:58;;;;;;;25.00;14.35;;;16.70;1.00;;;;;;6289102;22;39884;-82
2024/03/20 10:34:26;;;;;;;19.67;13.63;;;16.90;1.00;;;;;;6257145;22;36291;-81
2024/03/20 10:36:53;;;;;;;23.55;15.00;;;16.90;1.00;;;;;;6261392;22;38108;-81
2024/03/20 10:39:27;;;;;;;23.15;13.77;;;16.90;1.00;;;;;;6290458;22;38774;-82
2024/03/20 10:41:54;;;;;;;20.30;12.77;;;17.10;1.00;;;;;;6262090;22;38912;-82
2024/03/20 10:44:22;;;;;;;22.88;14.68;;;17.20;99.90;;;;;;6259975;22;37192;-80
2024/03/20 10:46:54;;;;;;;22.13;13.93;;;17.20;99.90;;;;;;6263672;22;37719;-82
2024/03/20 10:49:24;;;;;;;22.52;14.80;;;17.00;1.00;;;;;;6288742;22;39425;-81
2024/03/20 10:51:52;;;;;;;18.13;13.18;;;17.00;1.00;;;;;;6261758;22;39180;-81
2024/03/20 10:54:20;;;;;;;22.55;13.57;;;17.00;99.90;;;;;;6258032;22;38201;-82
2024/03/20 10:56:48;;;;;;;21.58;13.38;;;17.10;1.00;;;;;;6258917;22;37812;-82
2024/03/20 10:59:26;;;;;;;24.20;13.65;;;17.00;99.90;;;;;;6285662;22;38615;-81
2024/03/20 11:02:03;;;;;;;18.65;12.27;;;17.10;99.90;;;;;;6258717;22;39003;-79
2024/03/20 11:04:41;;;;;;;21.20;13.43;;;17.30;99.90;;;;;;6288059;22;49225;-82
2024/03/20 11:07:28;;;;;;;20.55;12.52;;;17.30;84.40;;;;;;6285698;22;38796;-82
2024/03/20 11:09:58;;;;;;;21.52;11.75;;;17.50;99.90;;;;;;6261136;22;37665;-81
2024/03/20 11:12:33;;;;;;;19.48;12.30;;;17.70;1.00;;;;;;6260861;22;37798;-80
2024/03/20 11:15:07;;;;;;;16.45;11.77;;;17.60;99.90;;;;;;6259671;22;39602;-81
2024/03/20 11:17:39;;;;;;;15.52;10.43;;;17.90;1.00;;;;;;6258377;22;47227;-82
2024/03/20 11:20:06;;;;;;;19.65;11.35;;;18.20;1.00;;;;;;6259241;22;39007;-82
2024/03/20 11:22:33;;;;;;;19.23;12.00;;;18.40;99.90;;;;;;6289712;22;39336;-82
2024/03/20 11:25:00;;;;;;;19.15;11.57;;;18.40;1.00;;;;;;6262169;22;39160;-82
2024/03/20 11:27:27;;;;;;;15.60;10.70;;;17.90;1.00;;;;;;6259045;22;39519;-81
2024/03/20 11:29:53;;;;;;;20.85;11.63;;;18.00;61.50;;;;;;6261087;22;39471;-84
2024/03/20 11:32:23;;;;;;;22.00;11.52;;;17.90;99.90;;;;;;6287602;22;38699;-83
2024/03/20 11:34:49;;;;;;;14.32;10.25;;;18.10;1.00;;;;;;6307816;22;37340;-82
2024/03/20 11:37:17;;;;;;;18.27;11.02;;;18.30;1.00;;;;;;6261099;22;39395;-83
2024/03/20 11:39:44;;;;;;;20.42;11.52;;;18.20;99.90;;;;;;6260746;22;38370;-83
2024/03/20 11:42:15;;;;;;;20.48;11.25;;;18.00;99.90;;;;;;6285593;22;38398;-82
2024/03/20 11:44:42;;;;;;;15.23;10.73;;;18.20;1.00;;;;;;6292860;22;38320;-83
2024/03/20 11:47:14;;;;;;;21.45;11.43;;;18.30;1.00;;;;;;6260125;22;38003;-82
2024/03/20 11:49:47;;;;;;;17.17;11.10;;;18.60;1.00;;;;;;6258589;22;37609;-82
2024/03/20 11:52:15;;;;;;;16.15;10.63;;;18.80;99.90;;;;;;6258808;22;38543;-83
2024/03/20 11:54:47;;;;;;;17.60;10.07;;;18.70;70.20;;;;;;6257928;22;36917;-83
2024/03/20 11:57:16;;;;;;;20.00;9.90;;;18.60;1.00;;;;;;6259453;22;38666;-83
2024/03/20 11:59:46;;;;;;;21.05;10.35;;;18.20;1.00;;;;;;6257559;22;39626;-83
2024/03/20 12:02:19;;;;;;;19.17;10.32;;;18.00;1.00;;;;;;6257148;22;37750;-83
2024/03/20 12:04:47;;;;;;;16.25;9.73;;;17.70;1.00;;;;;;6288384;22;37278;-83
2024/03/20 12:07:32;;;;;;;15.30;8.35;;;18.10;1.00;;;;;;6259556;22;39101;-83
2024/03/20 12:09:58;;;;;;;18.75;11.18;;;18.50;1.00;;;;;;6254553;22;39822;-83
2024/03/20 12:12:25;;;;;;;14.82;9.70;;;18.90;99.90;;;;;;6039603;22;133168;-83
2024/03/20 12:14:55;;;;;;;15.57;9.48;;;18.90;58.10;;;;;;6248439;22;38569;-82
2024/03/20 12:17:23;;;;;;;20.90;10.02;;;18.90;1.00;;;;;;6254015;22;38529;-82
2024/03/20 12:19:50;;;;;;;12.48;7.93;;;19.00;1.00;;;;;;6260731;22;38293;-83
2024/03/20 12:22:17;;;;;;;13.60;6.85;;;18.90;1.00;;;;;;6262646;22;38419;-83
2024/03/20 12:24:44;;;;;;;11.15;6.90;;;19.00;1.00;;;;;;6269121;22;37705;-82
2024/03/20 12:27:11;;;;;;;13.75;6.78;;;19.00;1.00;;;;;;6256982;22;40257;-82
2024/03/20 12:29:37;;;;;;;12.05;6.97;;;19.10;1.00;;;;;;6269771;22;39851;-82
2024/03/20 12:32:06;;;;;;;9.43;6.15;;;19.30;99.90;;;;;;6256111;22;39509;-82
2024/03/20 12:34:32;;;;;;;10.68;6.15;;;18.90;4.10;;;;;;6256338;22;40297;-81
2024/03/20 12:36:58;;;;;;;9.73;4.97;;;18.60;1.00;;;;;;6258025;22;38031;-82
2024/03/20 12:39:29;;;;;;;9.70;5.68;;;18.80;19.40;;;;;;6257281;22;38392;-82
2024/03/20 12:42:00;;;;;;;11.45;5.97;;;19.20;1.00;;;;;;6257870;22;40048;-80
2024/03/20 12:44:26;;;;;;;12.63;6.90;;;19.40;1.00;;;;;;6259060;22;38233;-82
2024/03/20 12:46:53;;;;;;;10.77;6.15;;;19.00;1.00;;;;;;6258673;22;40328;-82
2024/03/20 12:49:19;;;;;;;10.13;6.38;;;18.70;99.90;;;;;;6256547;22;39184;-81
2024/03/20 12:51:45;;;;;;;12.07;6.32;;;18.80;1.00;;;;;;6265211;22;39454;-82
2024/03/20 12:54:17;;;;;;;13.18;6.18;;;18.90;1.00;;;;;;6275462;22;36557;-80
2024/03/20 12:56:43;;;;;;;13.65;6.95;;;19.10;99.90;;;;;;6259562;22;39544;-82
2024/03/20 12:59:13;;;;;;;11.40;7.25;;;19.20;1.00;;;;;;6264252;22;39089;-82